Terminal Aerodrome Forecast
Issued by NWS

Home | Current Version | Previous Version | Text Only | Print | Product List | Glossary On
Versions: 1 2 3 4 5 6 7 8 9 10 11 12 13 14 15 16
000
FTUS43 KFGF 101733
TAFDVL
TAF
KDVL 101733Z 1018/1118 14005KT P6SM FEW004
     FM110000 11009KT P6SM OVC035
     FM110200 10009KT P6SM OVC025
     FM110600 09008KT 2SM -SN OVC015
     FM110800 06008KT 1 1/2SM -SN OVC015
     FM111700 01004KT P6SM BKN010=

USA.gov is the U.S. government's official web portal to all federal, state and local government web resources and services.